Time;durP1;ratioP1;P1;durP2;ratioP2;P2;SDS_P1;SDS_P2;PMS_P1;PMS_P2;Temp;Humidity;BMP_temperature;BMP_pressure;BME280_temperature;BME280_humidity;BME280_pressure;Samples;Min_cycle;Max_cycle;Signal;HPM_P1;HPM_P2
2022/04/05 00:02:23;;;;;;;5.47;4.90;;;;;;;5.16;100.00;99372.44;5044273;28;20236;-61
2022/04/05 00:04:49;;;;;;;6.20;5.10;;;;;;;4.94;100.00;99375.91;5039102;28;20232;-61
2022/04/05 00:07:16;;;;;;;5.80;4.80;;;;;;;4.94;100.00;99368.09;5037061;28;20285;-61
2022/04/05 00:09:42;;;;;;;5.80;3.53;;;;;;;4.94;100.00;99365.50;5039718;28;20264;-62
2022/04/05 00:12:10;;;;;;;4.73;3.93;;;;;;;4.91;100.00;99381.09;5042745;28;20254;-63
2022/04/05 00:14:37;;;;;;;5.67;3.60;;;;;;;4.94;100.00;99366.34;5039568;28;20289;-62
2022/04/05 00:17:03;;;;;;;3.70;3.03;;;;;;;4.89;100.00;99372.44;5035613;28;20294;-62
2022/04/05 00:19:30;;;;;;;6.00;3.27;;;;;;;4.87;100.00;99376.78;5040194;28;20228;-62
2022/04/05 00:21:56;;;;;;;4.97;2.47;;;;;;;4.88;100.00;99374.19;5043922;28;20263;-63
2022/04/05 00:24:23;;;;;;;7.63;2.80;;;;;;;4.85;100.00;99373.31;5034769;28;20231;-64
2022/04/05 00:26:49;;;;;;;7.03;2.53;;;;;;;4.85;100.00;99384.59;5041355;28;20313;-64
2022/04/05 00:29:19;;;;;;;5.63;2.40;;;;;;;4.73;100.00;99382.81;5034569;28;20236;-65
2022/04/05 00:31:45;;;;;;;4.67;2.30;;;;;;;4.84;100.00;99379.38;5043984;28;20705;-65
2022/04/05 00:34:11;;;;;;;5.83;2.27;;;;;;;4.78;100.00;99378.50;5043030;28;20491;-65
2022/04/05 00:36:38;;;;;;;7.00;2.27;;;;;;;4.89;100.00;99377.66;5042910;28;20668;-65
2022/04/05 00:39:04;;;;;;;3.77;1.90;;;;;;;4.79;100.00;99381.97;5035208;28;20293;-66
2022/04/05 00:41:30;;;;;;;8.50;2.30;;;;;;;4.75;100.00;99377.66;5029627;28;20232;-65
2022/04/05 00:43:57;;;;;;;5.97;2.10;;;;;;;4.85;100.00;99374.19;5043236;28;20231;-65
2022/04/05 00:46:25;;;;;;;3.13;1.83;;;;;;;4.81;100.00;99377.66;5032580;28;20953;-67
2022/04/05 00:48:53;;;;;;;7.13;2.70;;;;;;;4.87;100.00;99368.97;5041607;28;20290;-66
2022/04/05 00:51:20;;;;;;;5.87;2.30;;;;;;;4.93;100.00;99376.78;5023603;28;20236;-65
2022/04/05 00:53:48;;;;;;;3.67;2.43;;;;;;;5.01;100.00;99382.84;5022110;28;20250;-64
2022/04/05 00:56:15;;;;;;;2.23;2.10;;;;;;;4.93;100.00;99387.19;5040045;28;20247;-65
2022/04/05 00:58:43;;;;;;;2.30;2.10;;;;;;;4.89;100.00;99377.66;5037437;28;20915;-64
2022/04/05 01:01:15;;;;;;;8.20;3.70;;;;;;;4.89;100.00;99388.06;5012646;28;20284;-64
2022/04/05 01:03:43;;;;;;;3.07;2.30;;;;;;;4.92;100.00;99393.25;5034886;28;20313;-63
2022/04/05 01:06:10;;;;;;;8.00;3.80;;;;;;;4.96;100.00;99384.59;5043480;28;20589;-63
2022/04/05 01:08:37;;;;;;;3.83;3.37;;;;;;;5.12;100.00;99393.22;5042898;28;20240;-62
2022/04/05 01:11:04;;;;;;;6.37;3.50;;;;;;;5.06;100.00;99395.84;5040726;28;20829;-62
2022/04/05 01:13:31;;;;;;;4.23;3.00;;;;;;;5.01;100.00;99399.31;5042539;28;20815;-62
2022/04/05 01:15:58;;;;;;;4.60;3.60;;;;;;;5.10;100.00;99385.44;5042282;28;20270;-62
2022/04/05 01:18:24;;;;;;;5.17;2.90;;;;;;;5.08;100.00;99394.97;5043074;28;20697;-62
2022/04/05 01:20:52;;;;;;;8.73;2.90;;;;;;;5.00;100.00;99394.13;5036548;28;20232;-61
2022/04/05 01:23:21;;;;;;;3.17;2.47;;;;;;;5.06;100.00;99396.72;5031506;28;20263;-60
2022/04/05 01:25:49;;;;;;;5.73;2.70;;;;;;;5.05;100.00;99405.38;5035406;28;20239;-61
2022/04/05 01:28:15;;;;;;;7.63;3.73;;;;;;;5.10;100.00;99402.78;5033856;28;20239;-61
2022/04/05 01:30:42;;;;;;;8.10;3.00;;;;;;;5.10;100.00;99392.38;5042542;28;20718;-62
2022/04/05 01:33:08;;;;;;;6.03;3.03;;;;;;;4.96;100.00;99395.84;5043473;28;20232;-62
2022/04/05 01:35:35;;;;;;;4.53;2.70;;;;;;;4.85;100.00;99394.13;5043204;28;20239;-61
2022/04/05 01:38:02;;;;;;;6.63;2.30;;;;;;;4.97;100.00;99399.31;5044247;28;20282;-61
2022/04/05 01:40:28;;;;;;;5.37;2.00;;;;;;;4.92;100.00;99398.47;5042055;28;20227;-62
2022/04/05 01:42:56;;;;;;;4.47;1.80;;;;;;;4.81;100.00;99411.47;5041279;28;20239;-61
2022/04/05 01:45:23;;;;;;;4.27;2.10;;;;;;;4.87;100.00;99400.16;5042586;28;20239;-60
2022/04/05 01:47:49;;;;;;;9.10;2.53;;;;;;;4.83;100.00;99395.84;5044256;28;20228;-62
2022/04/05 01:50:15;;;;;;;5.37;2.07;;;;;;;4.75;100.00;99391.50;5046018;28;20605;-62
2022/04/05 01:52:42;;;;;;;6.30;1.93;;;;;;;4.81;100.00;99397.56;5046600;28;20235;-62
2022/04/05 01:55:09;;;;;;;8.23;2.43;;;;;;;4.71;100.00;99389.78;5047533;28;20393;-62
2022/04/05 01:57:36;;;;;;;4.13;2.00;;;;;;;4.68;100.00;99394.97;5045894;28;20254;-63
2022/04/05 02:00:05;;;;;;;5.93;2.23;;;;;;;4.79;100.00;99389.78;5043643;28;20288;-63
2022/04/05 02:02:31;;;;;;;6.03;1.87;;;;;;;4.78;100.00;99401.91;5046822;28;20354;-62
2022/04/05 02:04:57;;;;;;;4.43;1.80;;;;;;;4.86;100.00;99390.66;5046028;28;20263;-62
2022/04/05 02:07:24;;;;;;;5.50;1.77;;;;;;;4.88;100.00;99389.78;5037080;28;20298;-61
2022/04/05 02:09:51;;;;;;;3.37;1.80;;;;;;;4.85;100.00;99395.00;5045239;28;20240;-62
2022/04/05 02:12:18;;;;;;;3.53;1.97;;;;;;;4.76;100.00;99402.78;5046846;28;20235;-63
2022/04/05 02:14:45;;;;;;;5.33;1.63;;;;;;;4.84;100.00;99402.78;5044728;28;20262;-62
2022/04/05 02:17:13;;;;;;;3.80;1.73;;;;;;;4.81;100.00;99395.84;5046889;28;20243;-62
2022/04/05 02:19:40;;;;;;;9.07;1.90;;;;;;;4.86;100.00;99390.66;5044380;28;20239;-62
2022/04/05 02:22:07;;;;;;;5.30;1.60;;;;;;;4.98;100.00;99399.31;5041388;28;20227;-62
2022/04/05 02:24:33;;;;;;;8.10;2.30;;;;;;;4.94;100.00;99396.69;5046138;28;20232;-62
2022/04/05 02:26:59;;;;;;;7.00;2.30;;;;;;;5.16;100.00;99403.66;5046123;28;20294;-62
2022/04/05 02:29:29;;;;;;;8.70;1.67;;;;;;;5.11;100.00;99405.38;5044708;28;20289;-61
2022/04/05 02:31:55;;;;;;;5.20;2.20;;;;;;;5.03;100.00;99407.13;5045405;28;20717;-62
2022/04/05 02:34:23;;;;;;;4.30;2.57;;;;;;;4.90;100.00;99405.38;5042151;28;20821;-60
2022/04/05 02:36:49;;;;;;;6.87;2.30;;;;;;;5.01;100.00;99404.50;5042473;28;20663;-63
2022/04/05 02:39:15;;;;;;;6.63;2.10;;;;;;;4.85;100.00;99417.53;5045353;28;20231;-62
2022/04/05 02:41:42;;;;;;;4.70;2.20;;;;;;;4.82;100.00;99417.53;5039477;28;20309;-62
2022/04/05 02:44:08;;;;;;;7.33;2.20;;;;;;;4.99;100.00;99405.41;5045606;28;20285;-61
2022/04/05 02:46:35;;;;;;;11.53;2.30;;;;;;;4.92;100.00;99414.06;5043944;28;20231;-61
2022/04/05 02:49:01;;;;;;;5.07;1.90;;;;;;;4.96;100.00;99408.00;5045081;28;20252;-63
2022/04/05 02:51:29;;;;;;;3.40;2.10;;;;;;;4.86;100.00;99420.13;5042704;28;20722;-62
2022/04/05 02:53:55;;;;;;;7.33;2.27;;;;;;;4.99;100.00;99419.25;5045454;28;20228;-62
2022/04/05 02:56:22;;;;;;;4.90;1.77;;;;;;;4.98;100.00;99425.34;5044638;28;20255;-59
2022/04/05 02:58:48;;;;;;;6.80;2.07;;;;;;;4.98;100.00;99425.34;5045342;28;20403;-61
2022/04/05 03:01:16;;;;;;;4.37;2.37;;;;;;;4.99;100.00;99432.25;5045370;28;20232;-64
2022/04/05 03:03:43;;;;;;;2.37;2.03;;;;;;;4.94;100.00;99433.13;5044929;28;20281;-62
2022/04/05 03:06:10;;;;;;;6.13;2.30;;;;;;;5.00;100.00;99425.31;5045689;28;20373;-62
2022/04/05 03:08:38;;;;;;;4.87;1.90;;;;;;;4.91;100.00;99438.31;5037121;28;20346;-61
2022/04/05 03:11:04;;;;;;;5.10;2.57;;;;;;;5.05;100.00;99440.91;5045401;28;20900;-62
2022/04/05 03:13:31;;;;;;;7.60;1.93;;;;;;;4.95;100.00;99446.13;5044766;28;20230;-62
2022/04/05 03:15:57;;;;;;;4.87;2.43;;;;;;;4.91;100.00;99459.13;5044402;28;20327;-62
2022/04/05 03:18:24;;;;;;;5.33;1.97;;;;;;;4.90;100.00;99455.66;5044646;28;20653;-62
2022/04/05 03:20:50;;;;;;;7.00;1.90;;;;;;;4.84;100.00;99457.38;5045221;28;20231;-63
2022/04/05 03:23:17;;;;;;;6.83;1.87;;;;;;;4.75;100.00;99453.91;5040576;28;20248;-62
2022/04/05 03:25:44;;;;;;;10.47;2.40;;;;;;;4.82;100.00;99459.97;5039810;28;20266;-63
2022/04/05 03:28:11;;;;;;;6.13;1.83;;;;;;;4.82;100.00;99457.38;5033061;28;20240;-63
2022/04/05 03:30:37;;;;;;;4.77;2.20;;;;;;;4.84;100.00;99455.63;5023158;28;21249;-63
2022/04/05 03:33:03;;;;;;;7.00;2.77;;;;;;;4.85;100.00;99451.34;5024513;28;20252;-62
2022/04/05 03:35:30;;;;;;;6.77;2.73;;;;;;;4.82;100.00;99446.97;5039611;28;20782;-61
2022/04/05 03:37:56;;;;;;;5.00;2.80;;;;;;;4.78;100.00;99450.44;5038974;28;20366;-63
2022/04/05 03:40:22;;;;;;;5.30;2.43;;;;;;;4.87;100.00;99454.78;5024764;28;20256;-63
2022/04/05 03:42:50;;;;;;;3.33;1.73;;;;;;;4.85;100.00;99456.53;5030552;28;20267;-63
2022/04/05 03:45:17;;;;;;;8.80;2.57;;;;;;;4.85;100.00;99456.53;5037611;28;20237;-63
2022/04/05 03:47:43;;;;;;;5.57;2.00;;;;;;;4.92;100.00;99450.47;5042733;28;20231;-63
2022/04/05 03:50:10;;;;;;;7.07;2.57;;;;;;;4.93;100.00;99457.41;5044040;28;20278;-62
2022/04/05 03:52:36;;;;;;;11.33;2.57;;;;;;;4.98;100.00;99466.94;5043869;28;20756;-61
2022/04/05 03:55:03;;;;;;;5.67;2.23;;;;;;;5.00;100.00;99469.53;5036588;28;20761;-62
2022/04/05 03:57:29;;;;;;;6.23;2.87;;;;;;;4.96;100.00;99473.00;5038593;28;20693;-62
2022/04/05 03:59:57;;;;;;;5.33;2.70;;;;;;;4.96;100.00;99475.59;5042160;28;20589;-63
2022/04/05 04:02:23;;;;;;;6.77;2.23;;;;;;;4.86;100.00;99476.47;5041666;28;20243;-62
2022/04/05 04:04:49;;;;;;;5.83;2.20;;;;;;;5.00;100.00;99485.16;5043415;28;20228;-63
2022/04/05 04:07:16;;;;;;;7.30;2.83;;;;;;;4.95;100.00;99481.66;5042854;28;20228;-63
2022/04/05 04:09:42;;;;;;;6.20;2.30;;;;;;;5.13;100.00;99484.31;5043097;28;20239;-63
2022/04/05 04:12:09;;;;;;;6.40;2.00;;;;;;;5.11;100.00;99483.41;5043198;28;20239;-62
2022/04/05 04:14:35;;;;;;;6.53;2.10;;;;;;;5.10;100.00;99494.69;5043686;28;20285;-62
2022/04/05 04:17:04;;;;;;;5.13;2.40;;;;;;;5.08;100.00;99496.41;5043814;28;20227;-63
2022/04/05 04:19:30;;;;;;;4.57;2.27;;;;;;;5.14;100.00;99499.03;5043549;28;20282;-62
2022/04/05 04:21:57;;;;;;;4.27;2.77;;;;;;;5.12;100.00;99499.88;5035332;28;20285;-62
2022/04/05 04:24:23;;;;;;;5.63;2.17;;;;;;;5.24;100.00;99505.97;5043909;28;20227;-64
2022/04/05 04:26:49;;;;;;;4.47;2.13;;;;;;;5.11;100.00;99499.03;5043397;28;20483;-62
2022/04/05 04:29:16;;;;;;;8.20;2.10;;;;;;;5.19;100.00;99506.84;5042257;28;20289;-63
2022/04/05 04:31:42;;;;;;;7.63;2.47;;;;;;;5.19;100.00;99502.50;5041462;28;20360;-62
2022/04/05 04:34:10;;;;;;;7.07;1.87;;;;;;;5.08;100.00;99509.44;5043671;28;20228;-63
2022/04/05 04:36:36;;;;;;;5.97;1.97;;;;;;;5.04;100.00;99512.91;5044045;28;20263;-63
2022/04/05 04:39:03;;;;;;;7.03;3.77;;;;;;;5.06;100.00;99510.31;5040867;28;20230;-61
2022/04/05 04:41:29;;;;;;;10.50;2.60;;;;;;;5.08;100.00;99506.81;5043022;28;20227;-63
2022/04/05 04:43:55;;;;;;;5.77;2.47;;;;;;;4.94;100.00;99508.53;5032724;28;20281;-62
2022/04/05 04:46:22;;;;;;;4.03;1.53;;;;;;;5.14;100.00;99519.84;5041169;28;20715;-63
2022/04/05 04:48:48;;;;;;;4.83;2.20;;;;;;;5.13;100.00;99518.13;5038656;28;20259;-63
2022/04/05 04:51:16;;;;;;;8.63;2.03;;;;;;;5.01;100.00;99528.50;5032652;28;20251;-63
2022/04/05 04:53:42;;;;;;;7.87;2.73;;;;;;;5.18;100.00;99534.59;5043100;28;20263;-63
2022/04/05 04:56:09;;;;;;;8.73;2.60;;;;;;;5.12;100.00;99518.09;5043139;28;20255;-63
2022/04/05 04:58:35;;;;;;;4.00;2.17;;;;;;;5.08;100.00;99522.44;5028356;28;20261;-62
2022/04/05 05:01:01;;;;;;;4.37;2.50;;;;;;;5.09;100.00;99521.59;5023069;28;20232;-62
2022/04/05 05:03:28;;;;;;;7.13;2.87;;;;;;;5.02;100.00;99530.25;5037414;28;20767;-62
2022/04/05 05:05:55;;;;;;;6.90;2.30;;;;;;;4.97;100.00;99542.34;5035562;28;20241;-62
2022/04/05 05:08:22;;;;;;;4.43;3.10;;;;;;;4.91;100.00;99542.34;5042685;28;20698;-62
2022/04/05 05:10:49;;;;;;;8.43;2.67;;;;;;;5.02;100.00;99540.66;5026416;28;20651;-62
2022/04/05 05:13:17;;;;;;;3.40;2.03;;;;;;;5.03;100.00;99550.19;5030173;28;20259;-63
2022/04/05 05:15:44;;;;;;;3.77;2.63;;;;;;;5.01;100.00;99539.75;5038521;28;20794;-62
2022/04/05 05:18:10;;;;;;;16.40;2.83;;;;;;;5.00;100.00;99547.56;5043035;28;20285;-61
2022/04/05 05:20:36;;;;;;;3.27;2.07;;;;;;;5.08;100.00;99543.25;5041277;28;20278;-63
2022/04/05 05:23:03;;;;;;;7.77;3.00;;;;;;;5.21;100.00;99549.34;5046202;28;20259;-62
2022/04/05 05:25:30;;;;;;;7.73;2.37;;;;;;;5.18;100.00;99552.81;5047193;28;20247;-62
2022/04/05 05:27:57;;;;;;;9.27;2.33;;;;;;;5.25;100.00;99558.88;5047683;28;20298;-62
2022/04/05 05:30:23;;;;;;;8.60;2.23;;;;;;;5.25;100.00;99567.56;5046096;28;20336;-63
2022/04/05 05:32:51;;;;;;;4.60;2.10;;;;;;;5.17;100.00;99569.28;5045917;28;20935;-62
2022/04/05 05:35:17;;;;;;;4.63;2.07;;;;;;;5.24;100.00;99575.38;5038389;28;20231;-63
2022/04/05 05:37:44;;;;;;;5.80;2.60;;;;;;;5.25;100.00;99580.56;5044384;28;20232;-63
2022/04/05 05:40:11;;;;;;;13.07;3.53;;;;;;;5.25;100.00;99582.31;5046402;28;20719;-62
2022/04/05 05:42:50;;;;;;;4.93;2.50;;;;;;;5.35;100.00;99580.59;5044186;28;20224;-62
2022/04/05 05:45:18;;;;;;;10.30;3.33;;;;;;;5.24;100.00;99594.47;5045880;28;20239;-62
2022/04/05 05:47:44;;;;;;;10.63;1.93;;;;;;;5.28;100.00;99597.06;5047386;28;20634;-62
2022/04/05 05:50:12;;;;;;;4.73;2.20;;;;;;;5.32;100.00;99602.28;5045775;28;20272;-63
2022/04/05 05:52:39;;;;;;;8.07;2.03;;;;;;;5.39;100.00;99595.34;5042327;28;20464;-62
2022/04/05 05:55:07;;;;;;;5.57;2.23;;;;;;;5.33;100.00;99614.41;5044995;28;20747;-61
2022/04/05 05:57:34;;;;;;;9.37;3.07;;;;;;;5.43;100.00;99610.09;5044245;28;20315;-61
2022/04/05 06:00:01;;;;;;;5.33;2.30;;;;;;;5.43;100.00;99610.97;5044594;28;20227;-61
2022/04/05 06:02:28;;;;;;;7.23;3.33;;;;;;;5.45;100.00;99613.59;5045116;28;20224;-62
2022/04/05 06:04:54;;;;;;;9.23;2.30;;;;;;;5.42;100.00;99627.47;5044456;28;20239;-62
2022/04/05 06:07:20;;;;;;;11.07;2.60;;;;;;;5.45;100.00;99624.00;5046625;28;20259;-61
2022/04/05 06:09:47;;;;;;;7.37;2.10;;;;;;;5.50;100.00;99630.94;5044488;28;20232;-63
2022/04/05 06:12:14;;;;;;;6.13;2.40;;;;;;;5.39;100.00;99645.66;5046627;28;20782;-62
2022/04/05 06:14:40;;;;;;;4.77;2.87;;;;;;;5.45;100.00;99637.00;5049696;28;20261;-62
2022/04/05 06:17:08;;;;;;;11.53;2.50;;;;;;;5.37;100.00;99641.31;5047409;28;20239;-62
2022/04/05 06:19:34;;;;;;;10.20;2.20;;;;;;;5.33;100.00;99645.63;5044345;28;20289;-62
2022/04/05 06:22:01;;;;;;;9.43;2.97;;;;;;;5.29;100.00;99651.72;5046131;28;20232;-63
2022/04/05 06:24:27;;;;;;;6.53;2.23;;;;;;;5.29;100.00;99658.66;5038909;28;20340;-63
2022/04/05 06:26:53;;;;;;;3.00;1.80;;;;;;;5.20;100.00;99656.91;5043982;28;20316;-62
2022/04/05 06:29:20;;;;;;;10.97;2.70;;;;;;;5.29;100.00;99658.66;5045245;28;20232;-62
2022/04/05 06:31:46;;;;;;;7.50;2.93;;;;;;;5.41;100.00;99663.91;5063669;28;20766;-61
2022/04/05 06:34:14;;;;;;;8.60;2.60;;;;;;;5.48;100.00;99673.47;5047132;28;20244;-62
2022/04/05 06:36:41;;;;;;;5.30;1.90;;;;;;;5.40;100.00;99677.75;5047086;28;20327;-62
2022/04/05 06:39:07;;;;;;;6.53;2.57;;;;;;;5.42;100.00;99683.84;5046080;28;20429;-62
2022/04/05 06:41:34;;;;;;;6.10;1.87;;;;;;;5.46;100.00;99683.84;5045530;28;20231;-61
2022/04/05 06:44:00;;;;;;;2.87;1.33;;;;;;;5.48;100.00;99689.09;5036609;28;20478;-62
2022/04/05 06:46:27;;;;;;;6.80;2.33;;;;;;;5.60;100.00;99701.25;5045265;28;20236;-61
2022/04/05 06:48:54;;;;;;;3.47;1.60;;;;;;;5.56;100.00;99700.38;5043944;28;20263;-61
2022/04/05 06:51:22;;;;;;;5.20;1.90;;;;;;;5.49;100.00;99709.03;5044245;28;20231;-62
2022/04/05 06:53:48;;;;;;;7.80;2.10;;;;;;;5.56;100.00;99702.97;5038790;28;20231;-63
2022/04/05 06:56:14;;;;;;;4.03;1.70;;;;;;;5.51;100.00;99712.53;5045516;28;20710;-61
2022/04/05 06:58:41;;;;;;;4.50;1.83;;;;;;;5.57;100.00;99707.31;5042119;28;20231;-62
2022/04/05 07:01:07;;;;;;;5.90;1.77;;;;;;;5.62;100.00;99709.94;5039908;28;20236;-72
2022/04/05 07:03:33;;;;;;;4.23;1.97;;;;;;;5.63;100.00;99711.69;5045017;28;20273;-71
2022/04/05 07:06:00;;;;;;;7.57;1.90;;;;;;;5.54;100.00;99709.03;5044410;28;20717;-71
2022/04/05 07:08:27;;;;;;;8.70;2.20;;;;;;;5.55;100.00;99719.47;5043185;28;20251;-69
2022/04/05 07:10:54;;;;;;;7.27;1.87;;;;;;;5.82;100.00;99729.06;5044457;28;20228;-70
2022/04/05 07:13:20;;;;;;;4.77;1.67;;;;;;;5.84;98.81;99723.88;5044830;28;20244;-70
2022/04/05 07:15:46;;;;;;;8.07;1.63;;;;;;;5.90;100.00;99731.72;5033985;28;20666;-68
2022/04/05 07:18:13;;;;;;;6.33;1.90;;;;;;;5.98;99.13;99737.81;5043309;28;20799;-67
2022/04/05 07:20:39;;;;;;;12.80;1.43;;;;;;;6.11;97.93;99739.59;5039748;28;20727;-67
2022/04/05 07:23:06;;;;;;;3.60;1.43;;;;;;;6.09;95.72;99738.69;5040896;28;20278;-67
2022/04/05 07:25:35;;;;;;;4.37;1.83;;;;;;;6.18;94.94;99730.91;5042028;28;20679;-68
2022/04/05 07:28:02;;;;;;;5.63;1.43;;;;;;;5.96;93.43;99736.94;5043136;28;20231;-69
2022/04/05 07:30:29;;;;;;;6.33;2.03;;;;;;;6.09;95.35;99740.44;5041891;28;20251;-69
2022/04/05 07:32:56;;;;;;;4.73;1.47;;;;;;;6.10;96.50;99740.44;5043148;28;20815;-69
2022/04/05 07:35:22;;;;;;;6.93;1.93;;;;;;;6.19;95.38;99750.88;5041763;28;20243;-68
2022/04/05 07:37:49;;;;;;;3.90;1.40;;;;;;;6.36;92.84;99744.81;5044909;28;20313;-67
2022/04/05 07:40:16;;;;;;;4.37;1.57;;;;;;;6.31;90.24;99749.13;5035929;28;20649;-69
2022/04/05 07:42:46;;;;;;;3.30;1.57;;;;;;;6.36;91.17;99747.41;5042325;28;20769;-70
2022/04/05 07:45:13;;;;;;;7.40;1.67;;;;;;;6.56;90.03;99745.66;5041773;28;20304;-70
2022/04/05 07:47:40;;;;;;;2.20;1.23;;;;;;;6.53;89.79;99740.47;5039460;28;20384;-68
2022/04/05 07:50:07;;;;;;;3.60;1.13;;;;;;;6.58;87.61;99743.91;5040247;28;20254;-69
2022/04/05 07:52:34;;;;;;;6.60;1.63;;;;;;;6.76;86.78;99753.47;5049994;28;20232;-69
2022/04/05 07:55:00;;;;;;;4.53;1.97;;;;;;;6.60;83.99;99755.22;5044202;28;20228;-70
2022/04/05 07:57:27;;;;;;;6.17;1.30;;;;;;;6.56;84.68;99755.22;5046162;28;20252;-69
2022/04/05 07:59:54;;;;;;;4.70;1.27;;;;;;;6.64;86.23;99772.63;5051171;28;20227;-68
2022/04/05 08:02:21;;;;;;;3.03;1.40;;;;;;;6.75;86.62;99771.75;5052101;28;20227;-69
2022/04/05 08:04:47;;;;;;;3.80;3.13;;;;;;;6.92;85.24;99777.81;5051316;28;20232;-65
2022/04/05 08:07:13;;;;;;;6.63;1.63;;;;;;;6.79;82.78;99778.69;5050611;28;20240;-73
2022/04/05 08:09:40;;;;;;;2.83;1.37;;;;;;;6.69;80.02;99772.59;5038829;28;20757;-72
2022/04/05 08:12:07;;;;;;;4.07;1.40;;;;;;;6.79;79.42;99776.06;5044524;28;20317;-72
2022/04/05 08:14:33;;;;;;;4.17;1.00;;;;;;;6.59;78.21;99774.34;5042232;28;20228;-74
2022/04/05 08:17:01;;;;;;;2.87;1.20;;;;;;;6.94;79.80;99789.09;5044506;28;20285;-73
2022/04/05 08:19:28;;;;;;;6.20;1.30;;;;;;;6.99;76.12;99784.75;5042869;28;20297;-72
2022/04/05 08:21:54;;;;;;;4.23;1.03;;;;;;;6.81;74.59;99792.56;5025001;28;20259;-73
2022/04/05 08:24:21;;;;;;;3.43;1.40;;;;;;;6.94;76.13;99796.91;5041544;28;20768;-74
2022/04/05 08:26:48;;;;;;;2.83;1.00;;;;;;;6.99;76.25;99800.41;5043905;28;20256;-72
2022/04/05 08:29:14;;;;;;;4.43;1.70;;;;;;;7.11;75.98;99787.31;5043942;28;20635;-73
2022/04/05 08:31:41;;;;;;;1.10;1.00;;;;;;;7.37;74.66;99786.38;5043816;28;20285;-72
2022/04/05 08:34:08;;;;;;;3.33;1.40;;;;;;;7.38;71.42;99785.53;5044554;28;20512;-73
2022/04/05 08:36:35;;;;;;;3.50;1.43;;;;;;;7.58;72.43;99793.25;5043133;28;20235;-71
2022/04/05 08:39:01;;;;;;;2.93;1.50;;;;;;;7.76;73.61;99794.94;5041910;28;20235;-69
2022/04/05 08:41:29;;;;;;;7.20;1.60;;;;;;;7.77;71.20;99794.06;5043619;28;20259;-71
2022/04/05 08:43:56;;;;;;;4.83;1.67;;;;;;;7.72;72.25;99796.72;5041342;28;20286;-71
2022/04/05 08:46:22;;;;;;;4.27;1.63;;;;;;;7.70;72.77;99797.59;5042978;28;20290;-70
2022/04/05 08:48:50;;;;;;;3.40;1.60;;;;;;;7.70;71.21;99797.59;5020093;28;20306;-72
2022/04/05 08:51:18;;;;;;;4.17;1.70;;;;;;;7.92;72.46;99801.81;5032500;28;20232;-72
2022/04/05 08:53:44;;;;;;;6.23;1.37;;;;;;;8.09;70.32;99807.81;5024363;28;20243;-67
2022/04/05 08:56:11;;;;;;;1.53;1.40;;;;;;;8.27;70.17;99811.19;5027275;28;20241;-67
2022/04/05 08:58:38;;;;;;;1.90;1.27;;;;;;;8.13;66.71;99820.00;5040542;28;20255;-65
2022/04/05 09:01:04;;;;;;;3.85;1.40;;;;;;;8.13;66.32;99814.75;5041316;28;20436;-66
2022/04/05 09:03:32;;;;;;;3.87;1.20;;;;;;;8.08;67.87;99816.53;5033881;28;20239;-63
2022/04/05 09:05:59;;;;;;;1.77;1.30;;;;;;;8.10;65.56;99830.47;5030671;28;20582;-66
2022/04/05 09:08:29;;;;;;;1.43;1.20;;;;;;;7.81;65.67;99827.13;5041171;28;20235;-61
2022/04/05 09:11:10;;;;;;;2.97;1.43;;;;;;;8.01;65.40;99827.91;5042344;28;20230;-63
2022/04/05 09:13:37;;;;;;;2.43;1.20;;;;;;;8.03;65.60;99826.16;5040867;28;20296;-63
2022/04/05 09:16:05;;;;;;;4.80;1.60;;;;;;;7.66;64.35;99833.31;5039819;28;20240;-60
2022/04/05 09:18:35;;;;;;;5.07;1.73;;;;;;;7.59;65.42;99828.97;5041498;28;20227;-61
2022/04/05 09:21:03;;;;;;;3.60;1.43;;;;;;;7.71;67.19;99828.06;5040868;28;20705;-68
2022/04/05 09:23:33;;;;;;;3.73;1.40;;;;;;;7.67;64.99;99831.56;5043111;28;20338;-63
2022/04/05 09:26:01;;;;;;;7.10;1.70;;;;;;;7.55;66.05;99829.88;5036505;28;20255;-64
2022/04/05 09:28:32;;;;;;;4.73;1.90;;;;;;;7.69;67.17;99837.63;5042638;28;20862;-61
2022/04/05 09:31:00;;;;;;;3.67;1.17;;;;;;;7.77;68.53;99844.56;5040342;28;20238;-74
2022/04/05 09:33:28;;;;;;;3.17;1.48;;;;;;;7.92;65.80;99841.03;5042623;28;20938;-67
2022/04/05 09:36:08;;;;;;;2.53;1.53;;;;;;;7.82;65.62;99844.53;5037464;28;20236;-66
2022/04/05 09:38:36;;;;;;;3.73;1.37;;;;;;;7.83;66.26;99841.94;5042075;28;20506;-70
2022/04/05 09:41:13;;;;;;;3.10;1.70;;;;;;;7.80;66.15;99847.19;5042088;28;20230;-73
2022/04/05 09:43:50;;;;;;;4.17;1.47;;;;;;;7.59;66.82;99839.41;5041871;28;20240;-67
2022/04/05 09:46:17;;;;;;;4.03;1.50;;;;;;;7.62;68.05;99842.91;5038571;28;20297;-72
2022/04/05 09:48:45;;;;;;;8.83;1.83;;;;;;;7.62;68.15;99848.13;5042192;28;20293;-66
2022/04/05 09:51:14;;;;;;;3.63;1.40;;;;;;;7.60;66.87;99843.75;5038776;28;20321;-61
2022/04/05 09:53:44;;;;;;;4.27;2.00;;;;;;;7.56;68.61;99848.13;5041719;28;20248;-64
2022/04/05 09:56:12;;;;;;;3.93;2.20;;;;;;;7.51;69.11;99855.13;5037514;28;20796;-70
2022/04/05 09:58:44;;;;;;;5.10;1.57;;;;;;;7.53;68.61;99853.34;5034718;28;20258;-76
2022/04/05 10:01:10;;;;;;;3.47;1.40;;;;;;;7.49;69.71;99859.47;5040784;28;20242;-74
2022/04/05 10:03:37;;;;;;;7.07;1.60;;;;;;;7.50;69.45;99848.13;5041258;28;20232;-62
2022/04/05 10:06:04;;;;;;;10.07;2.53;;;;;;;7.61;69.43;99851.59;5037586;28;20361;-62
2022/04/05 10:08:32;;;;;;;2.67;1.80;;;;;;;7.84;69.39;99851.50;5026876;28;21220;-66
2022/04/05 10:11:00;;;;;;;4.77;1.60;;;;;;;7.91;68.64;99844.53;5045579;28;20318;-67
2022/04/05 10:13:27;;;;;;;4.43;1.73;;;;;;;7.93;67.50;99845.34;5041339;28;20232;-69
2022/04/05 10:15:54;;;;;;;2.77;1.53;;;;;;;7.96;68.48;99853.19;5046588;28;20266;-66
2022/04/05 10:18:21;;;;;;;2.70;1.85;;;;;;;8.00;68.98;99859.28;5046265;28;20501;-65
2022/04/05 10:37:39;;;;;;;5.10;1.90;;;;;;;8.51;65.48;99845.06;5036337;28;20444;-57
2022/04/05 10:40:17;;;;;;;3.97;2.13;;;;;;;8.57;65.99;99852.88;5041592;28;20318;-56
2022/04/05 10:42:46;;;;;;;4.13;2.00;;;;;;;8.51;66.68;99847.69;5034402;28;20658;-57
2022/04/05 10:45:14;;;;;;;7.57;1.35;;;;;;;8.52;65.62;99854.66;5042133;28;20962;-56
2022/04/05 10:48:00;;;;;;;6.50;1.60;;;;;;;8.39;63.85;99845.16;5040443;28;20232;-57
2022/04/05 10:50:27;;;;;;;6.47;1.43;;;;;;;8.56;65.04;99847.66;5037258;28;20577;-57
2022/04/05 10:53:15;;;;;;;0.90;0.90;;;;;;;8.67;64.71;99847.56;5042342;28;20228;-57
2022/04/05 10:56:21;;;;;;;5.07;0.90;;;;;;;8.92;64.03;99841.28;5036391;28;20240;-57
2022/04/05 10:59:14;;;;;;;3.03;1.10;;;;;;;8.92;63.89;99843.88;5030235;28;20666;-56
2022/04/05 11:01:43;;;;;;;2.17;1.03;;;;;;;8.96;63.90;99853.44;5039289;28;20235;-56
2022/04/05 11:04:33;;;;;;;3.30;1.40;;;;;;;9.15;63.58;99840.19;5042307;28;20318;-55
2022/04/05 11:07:11;;;;;;;6.23;2.07;;;;;;;9.15;63.47;99840.19;5029562;28;20240;-57
2022/04/05 11:09:48;;;;;;;4.97;1.33;;;;;;;9.06;62.74;99833.28;5044808;28;20709;-57
2022/04/05 11:12:18;;;;;;;5.13;1.47;;;;;;;9.29;60.39;99827.81;5040686;28;20232;-56
2022/04/05 11:14:49;;;;;;;3.43;1.50;;;;;;;9.62;60.00;99828.31;5045263;28;20240;-56
2022/04/05 11:17:17;;;;;;;2.03;1.03;;;;;;;9.59;59.05;99836.25;5041884;28;20232;-56
2022/04/05 11:19:46;;;;;;;3.03;1.33;;;;;;;9.48;58.33;99828.50;5054380;28;20659;-56
2022/04/05 11:22:27;;;;;;;3.53;1.20;;;;;;;9.46;57.47;99820.66;5031560;28;20281;-56
2022/04/05 11:24:56;;;;;;;3.43;1.33;;;;;;;9.22;55.74;99821.78;5025613;28;20713;-57
2022/04/05 11:27:26;;;;;;;1.13;0.90;;;;;;;9.15;56.49;99834.94;5036520;28;20544;-55
2022/04/05 11:30:38;;;;;;;4.97;1.47;;;;;;;9.14;57.32;99839.31;5043803;28;20234;-55
2022/04/05 11:33:29;;;;;;;4.00;1.23;;;;;;;9.20;58.32;99846.25;5038690;28;20432;-56
2022/04/05 11:35:57;;;;;;;3.43;1.10;;;;;;;8.98;57.68;99835.97;5041944;28;20337;-56
2022/04/05 11:38:30;;;;;;;1.80;1.30;;;;;;;9.25;58.83;99836.59;5042981;28;20259;-57
2022/04/05 11:41:01;;;;;;;2.83;1.27;;;;;;;9.25;58.83;99831.34;5043754;28;20322;-57
2022/04/05 11:43:30;;;;;;;1.03;0.87;;;;;;;9.13;58.30;99836.72;5046198;28;20220;-55
2022/04/05 11:45:58;;;;;;;2.33;1.20;;;;;;;9.10;59.89;99832.38;5043458;28;20269;-58
2022/04/05 11:48:27;;;;;;;6.17;1.37;;;;;;;9.12;60.19;99832.34;5034689;28;20291;-58
2022/04/05 11:50:54;;;;;;;4.70;1.60;;;;;;;9.16;60.25;99826.19;5041429;28;20244;-56
2022/04/05 11:53:22;;;;;;;3.67;1.45;;;;;;;9.25;58.88;99821.75;5030593;28;20423;-55
2022/04/05 11:56:06;;;;;;;4.57;1.27;;;;;;;9.19;58.18;99834.03;5038708;28;20247;-56
2022/04/05 11:58:34;;;;;;;5.33;1.30;;;;;;;8.95;58.63;99827.25;5031027;28;20572;-57